createdAt,value
2019-02-21T00:00:57.751Z,20.47
2019-02-21T00:06:04.188Z,19.63
2019-02-21T00:11:11.112Z,20.80
2019-02-21T00:16:17.989Z,19.13
2019-02-21T00:21:23.961Z,18.97
2019-02-21T00:26:32.308Z,20.47
2019-02-21T00:31:40.345Z,21.73
2019-02-21T00:36:48.150Z,20.57
2019-02-21T00:41:54.164Z,21.67
2019-02-21T00:47:01.238Z,21.53
2019-02-21T00:52:08.458Z,22.53
2019-02-21T00:57:14.500Z,22.10
2019-02-21T01:02:22.411Z,21.83
2019-02-21T01:07:29.922Z,20.53
2019-02-21T01:12:37.199Z,21.60
2019-02-21T01:17:44.789Z,21.67
2019-02-21T01:22:51.602Z,21.27
2019-02-21T01:27:58.700Z,22.13
2019-02-21T01:33:06.113Z,20.77
2019-02-21T01:38:12.232Z,19.30
2019-02-21T01:43:19.954Z,19.43
2019-02-21T01:48:26.638Z,18.47
2019-02-21T01:53:32.688Z,19.80
2019-02-21T01:58:40.375Z,18.07
2019-02-21T02:03:46.821Z,18.00
2019-02-21T02:08:52.983Z,18.70
2019-02-21T02:13:59.654Z,19.37
2019-02-21T02:19:07.463Z,18.17
2019-02-21T02:24:14.827Z,18.43
2019-02-21T02:29:21.095Z,17.90
2019-02-21T02:34:27.960Z,17.57
2019-02-21T02:39:34.128Z,19.10
2019-02-21T02:44:40.809Z,22.60
2019-02-21T02:49:48.814Z,23.47
2019-02-21T02:54:54.768Z,22.17
2019-02-21T03:00:01.086Z,22.70
2019-02-21T03:05:08.214Z,23.20
2019-02-21T03:10:14.747Z,23.17
2019-02-21T03:15:23.620Z,24.67
2019-02-21T03:20:31.102Z,25.03
2019-02-21T03:25:38.241Z,25.40
2019-02-21T03:30:44.364Z,25.73
2019-02-21T03:35:51.621Z,26.00
2019-02-21T03:40:59.460Z,26.10
2019-02-21T03:46:07.362Z,25.87
2019-02-21T03:51:13.552Z,28.00
2019-02-21T03:56:21.324Z,29.03
2019-02-21T04:01:29.066Z,30.60
2019-02-21T04:06:35.743Z,31.57
2019-02-21T04:11:42.571Z,30.27
2019-02-21T04:16:48.904Z,32.03
2019-02-21T04:21:56.684Z,31.67
2019-02-21T04:27:02.872Z,33.03
2019-02-21T04:32:16.875Z,31.67
2019-02-21T04:37:20.012Z,32.87
2019-02-21T04:42:26.495Z,30.33
2019-02-21T04:47:32.579Z,31.03
2019-02-21T04:52:39.463Z,30.73
2019-02-21T04:57:46.976Z,29.50
2019-02-21T05:02:53.197Z,30.40
2019-02-21T05:08:01.138Z,30.27
2019-02-21T05:13:08.044Z,31.43
2019-02-21T05:18:15.710Z,31.73
2019-02-21T05:23:21.771Z,32.67
2019-02-21T05:28:32.502Z,33.47
2019-02-21T05:33:58.807Z,35.37
2019-02-21T05:39:30.717Z,33.67
2019-02-21T05:45:11.102Z,32.73
2019-02-21T05:50:40.116Z,35.27
2019-02-21T05:56:07.193Z,34.17
2019-02-21T06:01:35.302Z,34.57
2019-02-21T06:07:24.027Z,35.30
2019-02-21T06:12:56.184Z,35.70
2019-02-21T06:18:30.007Z,34.43
2019-02-21T06:23:50.747Z,34.27
2019-02-21T06:29:05.512Z,34.50
2019-02-21T06:34:13.105Z,32.33
2019-02-21T06:39:19.317Z,31.50
2019-02-21T06:44:26.567Z,31.83
2019-02-21T06:49:33.196Z,36.77
2019-02-21T06:54:41.238Z,34.07
2019-02-21T06:59:48.949Z,34.00
2019-02-21T07:04:56.594Z,33.87
2019-02-21T07:10:04.138Z,31.00
2019-02-21T07:15:15.097Z,30.37
2019-02-21T07:20:21.669Z,29.47
2019-02-21T07:25:56.244Z,28.87
2019-02-21T07:31:02.291Z,29.50
2019-02-21T07:36:11.044Z,28.50
2019-02-21T07:41:18.850Z,29.73
2019-02-21T07:46:25.328Z,32.03
2019-02-21T07:51:35.833Z,37.50
2019-02-21T07:56:42.435Z,35.70
2019-02-21T08:01:50.268Z,60.60
2019-02-21T08:06:56.581Z,34.70
2019-02-21T08:12:02.826Z,32.60
2019-02-21T08:17:09.351Z,33.13
2019-02-21T08:22:17.814Z,33.40
2019-02-21T08:27:24.135Z,31.30
2019-02-21T08:32:48.770Z,30.60
2019-02-21T08:37:54.751Z,31.03
2019-02-21T08:43:04.116Z,29.13
2019-02-21T08:48:13.546Z,29.03
2019-02-21T08:53:21.359Z,27.90
2019-02-21T08:58:28.638Z,29.37
2019-02-21T09:03:37.461Z,28.40
2019-02-21T09:08:44.961Z,29.27
2019-02-21T09:13:51.940Z,29.33
2019-02-21T09:18:59.956Z,25.90
2019-02-21T09:24:06.643Z,25.73
2019-02-21T09:29:12.808Z,25.03
2019-02-21T09:34:21.455Z,25.43
2019-02-21T09:39:28.405Z,30.93
2019-02-21T09:44:35.901Z,33.07
2019-02-21T09:49:42.178Z,33.77
2019-02-21T09:54:50.295Z,32.73
2019-02-21T09:59:56.567Z,32.50
2019-02-21T10:05:05.431Z,33.27
2019-02-21T10:10:14.075Z,34.33
2019-02-21T10:15:21.376Z,33.73
2019-02-21T10:20:28.963Z,31.80
2019-02-21T10:25:35.037Z,29.90
2019-02-21T10:30:42.641Z,30.03
2019-02-21T10:35:51.180Z,32.07
2019-02-21T10:41:01.144Z,29.83
2019-02-21T10:46:08.220Z,33.33
2019-02-21T10:51:14.584Z,37.53
2019-02-21T10:56:21.217Z,36.93
2019-02-21T11:01:29.159Z,36.57
2019-02-21T11:06:37.192Z,36.77
2019-02-21T11:11:43.435Z,37.07
2019-02-21T11:16:51.391Z,37.00
2019-02-21T11:21:57.962Z,35.87
2019-02-21T11:27:04.101Z,29.60
2019-02-21T11:32:11.249Z,32.00
2019-02-21T11:37:17.378Z,32.70
2019-02-21T11:42:23.258Z,33.67
2019-02-21T11:47:31.459Z,31.30
2019-02-21T11:52:38.193Z,27.97
2019-02-21T11:57:44.748Z,27.10
2019-02-21T12:02:51.644Z,24.37
2019-02-21T12:07:58.960Z,26.07
2019-02-21T12:13:05.042Z,20.80
2019-02-21T12:18:11.241Z,16.63
2019-02-21T12:23:18.370Z,15.90
2019-02-21T12:28:25.325Z,15.77
2019-02-21T12:33:33.447Z,13.43
2019-02-21T12:38:42.821Z,14.00
2019-02-21T12:43:49.737Z,12.23
2019-02-21T12:48:57.287Z,13.57
2019-02-21T12:54:03.563Z,12.27
2019-02-21T12:59:10.306Z,12.60
2019-02-21T13:04:17.330Z,11.90
2019-02-21T13:09:23.536Z,10.97
2019-02-21T13:14:31.310Z,10.53
2019-02-21T13:19:38.429Z,9.67
2019-02-21T13:24:44.395Z,10.70
2019-02-21T13:29:54.532Z,11.53
2019-02-21T13:35:01.481Z,9.70
2019-02-21T13:40:08.613Z,9.93
2019-02-21T13:45:17.897Z,9.03
2019-02-21T13:50:26.497Z,8.97
2019-02-21T13:55:32.877Z,10.07
2019-02-21T14:00:39.665Z,8.23
2019-02-21T14:05:47.262Z,8.97
2019-02-21T14:10:53.526Z,8.90
2019-02-21T14:16:01.446Z,10.30
2019-02-21T14:21:08.805Z,8.47
2019-02-21T14:26:15.536Z,7.93
2019-02-21T14:31:23.091Z,8.43
2019-02-21T14:36:31.714Z,8.23
2019-02-21T14:41:37.782Z,8.00
2019-02-21T14:46:44.163Z,8.27
2019-02-21T14:51:53.069Z,7.30
2019-02-21T14:57:00.125Z,7.50
2019-02-21T15:02:07.370Z,7.73
2019-02-21T15:07:13.510Z,7.23
2019-02-21T15:12:21.216Z,7.13
2019-02-21T15:17:27.666Z,7.27
2019-02-21T15:22:34.136Z,7.87
2019-02-21T15:27:42.661Z,7.13
2019-02-21T15:32:49.724Z,7.47
2019-02-21T15:37:56.466Z,8.03
2019-02-21T15:43:05.372Z,9.43
2019-02-21T15:48:12.024Z,8.37
2019-02-21T15:53:19.113Z,8.30
2019-02-21T15:58:26.778Z,8.60
2019-02-21T16:03:33.045Z,8.80
2019-02-21T16:08:40.038Z,9.80
2019-02-21T16:14:02.531Z,10.57
2019-02-21T16:19:02.462Z,9.73
2019-02-21T16:24:09.337Z,11.20
2019-02-21T16:29:17.664Z,12.17
2019-02-21T16:34:23.679Z,12.17
2019-02-21T16:39:33.329Z,14.50
2019-02-21T16:44:42.338Z,13.97
2019-02-21T16:49:49.923Z,13.20
2019-02-21T16:54:56.734Z,14.93
2019-02-21T17:00:02.829Z,16.20
2019-02-21T17:05:09.906Z,15.73
2019-02-21T17:10:17.627Z,18.50
2019-02-21T17:15:23.621Z,16.60
2019-02-21T17:20:31.259Z,18.87
2019-02-21T17:25:37.832Z,18.73
2019-02-21T17:30:44.384Z,18.30
2019-02-21T17:35:50.891Z,18.63
2019-02-21T17:40:58.880Z,21.57
2019-02-21T17:46:05.124Z,19.73
2019-02-21T17:51:11.966Z,21.40
2019-02-21T17:56:19.251Z,22.43
2019-02-21T18:01:27.382Z,26.87
2019-02-21T18:06:33.371Z,25.73
2019-02-21T18:11:41.264Z,25.50
2019-02-21T18:16:48.099Z,26.23
2019-02-21T18:21:54.340Z,26.40
2019-02-21T18:27:01.083Z,28.27
2019-02-21T18:32:09.197Z,26.47
2019-02-21T18:37:16.885Z,28.10
2019-02-21T18:42:22.944Z,29.00
2019-02-21T18:47:30.932Z,28.43
2019-02-21T18:52:37.980Z,28.50
2019-02-21T18:57:44.070Z,29.23
2019-02-21T19:02:53.020Z,32.57
2019-02-21T19:08:05.218Z,32.27
2019-02-21T19:13:09.049Z,33.83
2019-02-21T19:18:15.699Z,33.50
2019-02-21T19:23:22.184Z,36.17
2019-02-21T19:28:28.775Z,35.07
2019-02-21T19:33:34.771Z,34.80
2019-02-21T19:38:41.383Z,37.63
2019-02-21T19:43:48.188Z,34.10
2019-02-21T19:48:55.666Z,36.03
2019-02-21T19:54:01.845Z,36.37
2019-02-21T19:59:09.125Z,34.40
2019-02-21T20:04:16.900Z,37.17
2019-02-21T20:09:24.242Z,36.33
2019-02-21T20:14:31.305Z,35.90
2019-02-21T20:19:38.635Z,34.93
2019-02-21T20:24:44.755Z,35.33
2019-02-21T20:29:51.371Z,37.60
2019-02-21T20:34:58.075Z,38.77
2019-02-21T20:40:04.297Z,36.90
2019-02-21T20:45:12.455Z,36.70
2019-02-21T20:50:19.728Z,39.47
2019-02-21T20:55:27.499Z,38.30
2019-02-21T21:00:35.308Z,38.90
2019-02-21T21:05:42.067Z,38.43
2019-02-21T21:10:48.743Z,41.20
2019-02-21T21:15:54.983Z,42.23
2019-02-21T21:21:01.267Z,39.67
2019-02-21T21:26:09.085Z,40.07
2019-02-21T21:31:16.972Z,42.17
2019-02-21T21:36:23.139Z,41.17
2019-02-21T21:41:29.769Z,40.80
2019-02-21T21:46:36.405Z,43.03
2019-02-21T21:51:44.226Z,41.27
2019-02-21T21:56:51.587Z,41.13
2019-02-21T22:01:59.403Z,41.47
2019-02-21T22:07:07.440Z,43.43
2019-02-21T22:12:15.938Z,41.67
2019-02-21T22:17:23.499Z,42.07
2019-02-21T22:22:31.081Z,43.50
2019-02-21T22:27:37.740Z,45.27
2019-02-21T22:32:44.078Z,42.10
2019-02-21T22:37:51.551Z,45.20
2019-02-21T22:42:58.805Z,41.03
2019-02-21T22:48:05.387Z,41.20
2019-02-21T22:53:11.785Z,45.47
2019-02-21T22:58:19.995Z,43.90
2019-02-21T23:03:27.148Z,45.27
2019-02-21T23:08:54.466Z,47.80
2019-02-21T23:14:01.473Z,46.20
2019-02-21T23:19:08.452Z,51.33
2019-02-21T23:24:14.510Z,49.33
2019-02-21T23:29:21.029Z,53.13
2019-02-21T23:34:38.972Z,57.40
2019-02-21T23:39:45.693Z,49.80
2019-02-21T23:44:52.033Z,48.90
2019-02-21T23:50:01.154Z,49.10
2019-02-21T23:55:08.526Z,47.47
